Time;durP1;ratioP1;P1;durP2;ratioP2;P2;SDS_P1;SDS_P2;PMS_P1;PMS_P2;Temp;Humidity;BMP_temperature;BMP_pressure;BME280_temperature;BME280_humidity;BME280_pressure;Samples;Min_cycle;Max_cycle;Signal;HPM_P1;HPM_P2
2022/04/07 00:01:04;;;;;;;5.88;4.10;;;9.50;99.90;;;;;;5041398;28;20025;-74
2022/04/07 00:03:29;;;;;;;3.42;3.13;;;9.50;99.90;;;;;;5029913;28;20034;-74
2022/04/07 00:05:55;;;;;;;6.65;3.65;;;9.40;99.90;;;;;;5038892;28;20026;-74
2022/04/07 00:08:21;;;;;;;6.28;3.70;;;9.20;99.90;;;;;;5022578;28;20032;-74
2022/04/07 00:10:48;;;;;;;5.55;3.47;;;9.20;99.90;;;;;;5017721;28;20433;-74
2022/04/07 00:13:14;;;;;;;5.82;3.75;;;9.20;99.90;;;;;;5032171;28;20108;-74
2022/04/07 00:15:39;;;;;;;6.63;3.80;;;9.10;99.90;;;;;;5041221;28;20025;-73
2022/04/07 00:18:06;;;;;;;6.05;3.63;;;9.10;99.90;;;;;;5038580;28;20092;-73
2022/04/07 00:20:32;;;;;;;6.10;4.10;;;9.20;99.90;;;;;;5033545;28;20484;-73
2022/04/07 00:22:58;;;;;;;6.32;3.67;;;9.10;99.90;;;;;;5038235;28;20033;-73
2022/04/07 00:25:25;;;;;;;7.93;3.70;;;9.00;99.90;;;;;;5026026;28;20033;-73
2022/04/07 00:27:51;;;;;;;4.65;3.53;;;9.20;99.90;;;;;;4994322;28;20038;-74
2022/04/07 00:30:20;;;;;;;4.47;3.45;;;9.00;99.90;;;;;;5025147;28;20099;-74
2022/04/07 00:32:46;;;;;;;5.43;3.30;;;9.00;99.90;;;;;;5012283;28;20029;-75
2022/04/07 00:35:11;;;;;;;4.13;3.28;;;9.00;99.90;;;;;;5025442;28;20026;-74
2022/04/07 00:37:38;;;;;;;6.07;2.97;;;8.90;99.90;;;;;;5007389;28;20025;-73
2022/04/07 00:40:05;;;;;;;4.28;2.70;;;9.00;99.90;;;;;;5012060;28;20030;-73
2022/04/07 00:42:31;;;;;;;5.22;3.05;;;9.00;99.90;;;;;;5016665;28;20028;-73
2022/04/07 00:44:56;;;;;;;3.22;2.70;;;8.90;99.90;;;;;;5031914;28;20030;-73
2022/04/07 00:47:23;;;;;;;5.32;2.60;;;8.90;99.90;;;;;;5025333;28;20369;-73
2022/04/07 00:49:48;;;;;;;2.90;2.60;;;8.90;99.90;;;;;;5011981;28;20471;-71
2022/04/07 00:52:15;;;;;;;3.97;2.90;;;8.90;99.90;;;;;;5033753;28;20032;-73
2022/04/07 00:54:41;;;;;;;3.65;2.88;;;8.90;99.90;;;;;;5041656;28;20017;-72
2022/04/07 00:57:08;;;;;;;4.30;2.95;;;8.90;99.90;;;;;;5028396;28;20056;-73
2022/04/07 00:59:34;;;;;;;4.30;3.03;;;8.90;99.90;;;;;;5037448;28;20031;-73
2022/04/07 01:02:00;;;;;;;5.72;3.10;;;8.80;99.90;;;;;;5040335;28;20053;-73
2022/04/07 01:04:26;;;;;;;5.68;3.40;;;8.80;99.90;;;;;;5028412;28;20495;-72
2022/04/07 01:06:52;;;;;;;3.00;2.67;;;8.90;99.90;;;;;;5010727;28;20124;-71
2022/04/07 01:09:19;;;;;;;4.47;3.42;;;8.80;99.90;;;;;;5033324;28;20380;-73
2022/04/07 01:11:45;;;;;;;4.50;3.65;;;8.80;99.90;;;;;;5024624;28;20049;-73
2022/04/07 01:14:11;;;;;;;4.20;3.15;;;8.80;99.90;;;;;;4994049;28;20049;-73
2022/04/07 01:16:37;;;;;;;3.90;3.08;;;8.80;99.90;;;;;;4994049;28;20030;-73
2022/04/07 01:19:03;;;;;;;5.97;3.60;;;8.80;99.90;;;;;;5011741;28;20022;-71
2022/04/07 01:21:32;;;;;;;5.30;3.38;;;8.80;99.90;;;;;;5011387;28;20033;-73
2022/04/07 01:24:04;;;;;;;5.10;3.67;;;8.70;99.90;;;;;;5003341;28;20021;-73
2022/04/07 01:26:44;;;;;;;5.10;3.55;;;8.80;99.90;;;;;;5027190;28;20041;-75
2022/04/07 01:29:13;;;;;;;3.92;3.38;;;8.80;99.90;;;;;;5011639;28;20161;-74
2022/04/07 01:31:38;;;;;;;6.03;3.63;;;8.80;99.90;;;;;;5012613;28;20052;-74
2022/04/07 01:34:11;;;;;;;5.50;3.35;;;8.80;99.90;;;;;;5001215;28;20480;-73
2022/04/07 01:36:39;;;;;;;4.57;3.40;;;9.00;99.90;;;;;;5011628;28;20162;-72
2022/04/07 01:39:07;;;;;;;4.53;3.20;;;8.70;99.90;;;;;;5008625;28;20079;-72
2022/04/07 01:41:34;;;;;;;4.00;3.38;;;8.70;99.90;;;;;;5046879;28;20012;-74
2022/04/07 01:44:02;;;;;;;4.18;3.40;;;8.70;99.90;;;;;;5045204;28;20017;-72
2022/04/07 01:46:28;;;;;;;4.00;3.25;;;8.80;99.90;;;;;;5014920;28;20014;-72
2022/04/07 01:48:55;;;;;;;3.63;3.33;;;8.70;99.90;;;;;;5027337;28;20021;-72
2022/04/07 01:51:22;;;;;;;4.35;3.20;;;8.70;99.90;;;;;;5042556;28;20121;-72
2022/04/07 01:53:48;;;;;;;3.70;3.13;;;8.70;99.90;;;;;;5007512;28;20022;-73
2022/04/07 01:56:15;;;;;;;5.53;3.53;;;8.80;99.90;;;;;;5022841;28;20071;-73
2022/04/07 01:58:41;;;;;;;5.47;3.42;;;8.70;99.90;;;;;;5032996;28;20026;-73
2022/04/07 02:01:07;;;;;;;4.00;2.97;;;8.70;99.90;;;;;;5023103;28;20558;-72
2022/04/07 02:03:32;;;;;;;3.88;3.28;;;8.70;99.90;;;;;;5020013;28;20034;-73
2022/04/07 02:06:18;;;;;;;3.63;2.83;;;8.60;99.90;;;;;;5034449;28;20029;-73
2022/04/07 02:08:44;;;;;;;4.40;3.20;;;8.60;99.90;;;;;;5034448;28;20029;-73
2022/04/07 02:11:10;;;;;;;4.90;2.80;;;8.60;99.90;;;;;;5042664;28;20159;-73
2022/04/07 02:13:38;;;;;;;3.05;2.75;;;8.60;99.90;;;;;;5021014;28;20022;-73
2022/04/07 02:16:08;;;;;;;3.72;3.20;;;8.70;99.90;;;;;;5050599;28;20385;-73
2022/04/07 02:18:34;;;;;;;3.40;3.10;;;8.60;99.90;;;;;;5021071;28;20029;-74
2022/04/07 02:21:00;;;;;;;3.30;2.97;;;8.70;99.90;;;;;;5023581;28;20403;-73
2022/04/07 02:23:27;;;;;;;4.38;3.03;;;8.70;99.90;;;;;;5010137;28;20026;-73
2022/04/07 02:25:53;;;;;;;3.25;2.72;;;8.70;99.90;;;;;;5024872;28;20409;-74
2022/04/07 02:28:18;;;;;;;4.20;2.60;;;8.70;99.90;;;;;;5038763;28;20107;-74
2022/04/07 02:30:45;;;;;;;2.90;2.60;;;8.70;99.90;;;;;;5045001;28;20036;-73
2022/04/07 02:33:12;;;;;;;2.90;2.60;;;8.70;99.90;;;;;;5034997;28;20021;-73
2022/04/07 02:35:38;;;;;;;3.13;2.70;;;8.60;99.90;;;;;;5035541;28;20021;-75
2022/04/07 02:38:04;;;;;;;2.60;2.40;;;8.70;99.90;;;;;;5031511;28;20037;-74
2022/04/07 02:40:29;;;;;;;3.63;2.53;;;8.70;99.90;;;;;;5025094;28;20498;-73
2022/04/07 02:42:55;;;;;;;2.85;2.55;;;8.70;99.90;;;;;;5031960;28;20033;-73
2022/04/07 02:45:20;;;;;;;3.58;2.60;;;8.70;99.90;;;;;;5053682;28;20032;-73
2022/04/07 02:47:46;;;;;;;3.13;2.40;;;8.70;99.90;;;;;;5005176;28;20029;-73
2022/04/07 02:50:12;;;;;;;3.00;2.72;;;8.60;99.90;;;;;;5022712;28;20077;-73
2022/04/07 02:52:37;;;;;;;3.67;2.88;;;8.70;99.90;;;;;;5013189;28;20096;-73
2022/04/07 02:55:04;;;;;;;3.33;2.95;;;8.60;99.90;;;;;;5023019;28;20026;-74
2022/04/07 02:57:31;;;;;;;4.32;2.78;;;8.60;99.90;;;;;;5012987;28;20289;-73
2022/04/07 02:59:58;;;;;;;4.60;3.10;;;8.60;99.90;;;;;;5044289;28;20045;-73
2022/04/07 03:02:24;;;;;;;3.90;3.35;;;8.50;99.90;;;;;;5004485;28;20079;-73
2022/04/07 03:04:50;;;;;;;4.63;3.97;;;8.50;99.90;;;;;;5033394;28;20034;-74
2022/04/07 03:07:16;;;;;;;5.03;3.60;;;;;;;;;;4997692;28;20546;-73
2022/04/07 03:09:41;;;;;;;5.50;3.80;;;8.50;99.90;;;;;;5013525;28;20101;-74
2022/04/07 03:12:08;;;;;;;4.25;3.92;;;8.60;99.90;;;;;;5026483;28;20030;-73
2022/04/07 03:14:33;;;;;;;4.97;4.38;;;8.50;99.90;;;;;;5007186;28;20060;-73
2022/04/07 03:16:59;;;;;;;6.00;4.47;;;8.50;99.90;;;;;;5037438;28;20076;-73
2022/04/07 03:19:24;;;;;;;6.40;5.55;;;8.50;99.90;;;;;;5031722;28;20021;-73
2022/04/07 03:21:50;;;;;;;5.32;4.53;;;8.50;99.90;;;;;;5017769;28;20033;-73
2022/04/07 03:24:15;;;;;;;5.45;4.95;;;8.50;99.90;;;;;;5013488;28;20028;-73
2022/04/07 03:26:41;;;;;;;5.53;4.32;;;8.40;99.90;;;;;;5012398;28;20120;-74
2022/04/07 03:29:07;;;;;;;4.60;4.20;;;8.50;99.90;;;;;;5026747;28;20028;-73
2022/04/07 03:31:32;;;;;;;5.65;5.15;;;8.50;99.90;;;;;;5012797;28;20033;-73
2022/04/07 03:33:58;;;;;;;4.20;3.80;;;8.50;99.90;;;;;;5013442;28;20080;-74
2022/04/07 03:36:23;;;;;;;5.28;4.45;;;8.50;99.90;;;;;;5012779;28;20022;-73
2022/04/07 03:39:01;;;;;;;4.90;4.00;;;8.50;99.90;;;;;;4995999;28;20033;-72
2022/04/07 03:41:28;;;;;;;4.43;4.03;;;8.50;99.90;;;;;;5014476;28;20064;-72
2022/04/07 03:43:54;;;;;;;4.88;3.47;;;8.50;99.90;;;;;;5013044;28;20018;-72
2022/04/07 03:46:21;;;;;;;4.50;4.00;;;8.50;99.90;;;;;;5019063;28;20038;-73
2022/04/07 03:48:48;;;;;;;4.95;3.75;;;8.40;99.90;;;;;;5032382;28;20076;-73
2022/04/07 03:51:13;;;;;;;5.03;3.60;;;8.40;99.90;;;;;;5032133;28;20450;-74
2022/04/07 03:53:39;;;;;;;5.93;4.05;;;8.30;99.90;;;;;;5047791;28;20028;-73
2022/04/07 03:56:04;;;;;;;6.25;3.83;;;8.30;99.90;;;;;;5032271;28;20021;-73
2022/04/07 03:58:30;;;;;;;4.07;3.28;;;8.30;99.90;;;;;;5047616;28;20036;-74
2022/04/07 04:00:56;;;;;;;4.63;3.30;;;8.30;99.90;;;;;;5031252;28;20394;-73
2022/04/07 04:03:22;;;;;;;3.70;3.30;;;8.20;99.90;;;;;;5025297;28;20030;-73
2022/04/07 04:05:48;;;;;;;3.15;2.83;;;8.30;99.90;;;;;;5027243;28;20437;-72
2022/04/07 04:08:13;;;;;;;4.72;3.40;;;8.30;99.90;;;;;;5048214;28;20108;-72
2022/04/07 04:10:39;;;;;;;3.78;3.10;;;8.30;99.90;;;;;;5030129;28;20391;-73
2022/04/07 04:13:04;;;;;;;4.10;2.88;;;8.30;99.90;;;;;;5042012;28;20151;-73
2022/04/07 04:15:30;;;;;;;3.45;2.80;;;8.30;99.90;;;;;;5029213;28;20383;-73
2022/04/07 04:17:55;;;;;;;3.72;3.33;;;8.30;99.90;;;;;;5012255;28;20034;-73
2022/04/07 04:20:21;;;;;;;4.10;2.92;;;8.30;99.90;;;;;;5011922;28;20116;-73
2022/04/07 04:22:46;;;;;;;3.90;3.50;;;8.30;99.90;;;;;;5012365;28;20664;-73
2022/04/07 04:25:12;;;;;;;4.32;2.85;;;8.30;99.90;;;;;;5030863;28;20543;-73
2022/04/07 04:27:37;;;;;;;3.78;3.13;;;8.30;99.90;;;;;;5031888;28;20025;-74
2022/04/07 04:30:03;;;;;;;4.15;3.50;;;8.20;99.90;;;;;;5031596;28;20475;-74
2022/04/07 04:32:29;;;;;;;4.60;2.80;;;8.20;99.90;;;;;;5031546;28;20057;-74
2022/04/07 04:34:54;;;;;;;3.83;2.92;;;8.40;99.90;;;;;;5044618;28;20116;-74
2022/04/07 04:37:25;;;;;;;3.00;2.70;;;8.20;99.90;;;;;;5031424;28;20048;-74
2022/04/07 04:39:52;;;;;;;3.78;2.47;;;8.20;99.90;;;;;;5000834;28;20399;-74
2022/04/07 04:42:17;;;;;;;2.92;2.40;;;8.20;99.90;;;;;;5019434;28;20022;-73
2022/04/07 04:44:43;;;;;;;2.70;2.03;;;8.30;99.90;;;;;;5019837;28;20538;-73
2022/04/07 04:47:08;;;;;;;3.00;2.60;;;8.20;99.90;;;;;;5023779;28;20079;-73
2022/04/07 04:49:34;;;;;;;3.45;3.13;;;8.30;99.90;;;;;;5027122;28;20021;-73
2022/04/07 04:51:59;;;;;;;5.93;5.28;;;8.30;99.90;;;;;;5020453;28;20017;-73
2022/04/07 04:54:25;;;;;;;34.20;24.65;;;8.30;99.90;;;;;;5027841;28;20037;-73
2022/04/07 04:56:50;;;;;;;40.38;24.75;;;8.30;99.90;;;;;;5023738;28;20025;-73
2022/04/07 04:59:16;;;;;;;82.40;49.72;;;8.30;99.90;;;;;;5018287;28;20033;-73
2022/04/07 05:01:41;;;;;;;76.78;44.13;;;8.30;99.90;;;;;;5019730;28;20049;-73
2022/04/07 05:04:07;;;;;;;14.18;10.10;;;8.40;99.90;;;;;;5029794;28;20037;-73
2022/04/07 05:06:32;;;;;;;15.52;10.07;;;8.30;99.90;;;;;;5031361;28;20531;-73
2022/04/07 05:08:58;;;;;;;20.88;12.93;;;8.30;99.90;;;;;;5026415;28;20033;-73
2022/04/07 05:11:24;;;;;;;2.58;1.73;;;8.40;99.90;;;;;;5023126;28;20494;-73
2022/04/07 05:13:50;;;;;;;34.35;28.40;;;8.40;99.90;;;;;;5012645;28;20050;-73
2022/04/07 05:16:16;;;;;;;29.17;26.13;;;8.50;99.90;;;;;;5027126;28;20029;-73
2022/04/07 05:18:48;;;;;;;37.55;33.63;;;8.50;99.90;;;;;;5004645;28;20441;-73
2022/04/07 05:21:15;;;;;;;18.50;16.80;;;8.50;99.90;;;;;;5037975;28;20021;-76
2022/04/07 05:23:41;;;;;;;11.98;11.15;;;8.50;99.90;;;;;;5031532;28;20033;-74
2022/04/07 05:26:06;;;;;;;6.88;6.40;;;8.50;99.90;;;;;;5022999;28;20033;-73
2022/04/07 05:28:32;;;;;;;3.60;2.78;;;8.40;99.90;;;;;;5028601;28;20403;-73
2022/04/07 05:30:57;;;;;;;1.80;1.38;;;8.30;99.90;;;;;;5009586;28;20026;-73
2022/04/07 05:33:23;;;;;;;2.03;1.50;;;8.30;99.90;;;;;;5038318;28;20482;-72
2022/04/07 05:35:48;;;;;;;8.75;5.75;;;8.20;99.90;;;;;;5038749;28;20018;-74
2022/04/07 05:38:14;;;;;;;4.68;3.25;;;8.20;99.90;;;;;;5003929;28;20026;-73
2022/04/07 05:40:40;;;;;;;34.25;21.20;;;8.20;99.90;;;;;;5037656;28;20148;-73
2022/04/07 05:43:06;;;;;;;28.23;20.88;;;8.20;99.90;;;;;;5029532;28;20065;-73
2022/04/07 05:45:31;;;;;;;21.80;17.83;;;8.20;99.90;;;;;;5025934;28;20033;-73
2022/04/07 05:47:57;;;;;;;1.77;1.60;;;8.10;99.90;;;;;;5027624;28;20049;-73
2022/04/07 05:50:23;;;;;;;4.57;2.95;;;8.10;99.90;;;;;;5013770;28;20026;-73
2022/04/07 05:52:48;;;;;;;2.28;2.08;;;8.20;99.90;;;;;;5028407;28;20018;-74
2022/04/07 05:55:14;;;;;;;2.15;1.80;;;8.10;99.90;;;;;;4997207;28;20479;-72
2022/04/07 05:57:39;;;;;;;2.28;1.92;;;8.20;99.90;;;;;;5032882;28;20037;-73
2022/04/07 06:00:12;;;;;;;1.73;1.60;;;8.20;99.90;;;;;;5030711;28;20503;-76
2022/04/07 06:02:38;;;;;;;2.05;1.85;;;8.20;99.90;;;;;;5034315;28;20056;-74
2022/04/07 06:05:08;;;;;;;1.45;1.25;;;8.20;99.90;;;;;;5034459;28;20030;-73
2022/04/07 06:07:33;;;;;;;2.58;2.38;;;8.20;99.90;;;;;;5027551;28;20022;-73
2022/04/07 06:09:59;;;;;;;2.08;1.88;;;8.20;99.90;;;;;;4997322;28;20026;-73
2022/04/07 06:12:24;;;;;;;3.67;1.60;;;8.20;99.90;;;;;;5010405;28;20108;-73
2022/04/07 06:14:50;;;;;;;1.60;1.50;;;8.30;99.90;;;;;;5020976;28;20077;-73
2022/04/07 06:17:15;;;;;;;1.45;1.35;;;8.30;99.90;;;;;;5020025;28;20105;-74
2022/04/07 06:19:41;;;;;;;4.03;1.88;;;8.30;99.90;;;;;;5034115;28;20036;-73
2022/04/07 06:22:07;;;;;;;2.13;1.35;;;8.40;99.90;;;;;;5020725;28;20057;-73
2022/04/07 06:24:34;;;;;;;2.53;1.65;;;8.40;99.90;;;;;;5020247;28;20045;-73
2022/04/07 06:26:59;;;;;;;2.38;1.95;;;8.40;99.90;;;;;;5016013;28;20395;-73
2022/04/07 06:29:25;;;;;;;3.05;1.83;;;8.50;99.90;;;;;;5028421;28;20021;-74
2022/04/07 06:31:50;;;;;;;1.77;1.52;;;8.50;99.90;;;;;;5007016;28;20472;-73
2022/04/07 06:34:16;;;;;;;1.52;1.42;;;8.60;99.90;;;;;;5052297;28;20044;-73
2022/04/07 06:36:41;;;;;;;1.60;1.42;;;8.70;99.90;;;;;;5033935;28;20526;-73
2022/04/07 06:39:07;;;;;;;2.75;1.40;;;8.80;99.90;;;;;;5042083;28;20029;-73
2022/04/07 06:41:33;;;;;;;5.13;2.67;;;8.80;99.90;;;;;;5021390;28;20070;-73
2022/04/07 06:43:59;;;;;;;2.15;1.95;;;8.80;99.90;;;;;;5033778;28;20021;-73
2022/04/07 06:46:25;;;;;;;1.58;1.30;;;8.90;99.90;;;;;;5037917;28;20123;-74
2022/04/07 06:48:50;;;;;;;1.50;1.27;;;8.90;99.90;;;;;;5040794;28;20084;-73
2022/04/07 06:51:16;;;;;;;2.78;1.42;;;8.90;99.90;;;;;;5020084;28;20027;-73
2022/04/07 06:53:42;;;;;;;2.08;1.58;;;8.90;99.90;;;;;;5021061;28;20030;-74
2022/04/07 06:56:08;;;;;;;4.90;1.70;;;8.90;99.90;;;;;;5001722;28;20498;-73
2022/04/07 06:58:34;;;;;;;1.92;1.75;;;8.80;99.90;;;;;;5021210;28;20549;-73
2022/04/07 07:00:59;;;;;;;2.17;1.90;;;8.90;99.90;;;;;;5033382;28;20037;-73
2022/04/07 07:03:27;;;;;;;1.73;1.55;;;9.00;99.90;;;;;;5019726;28;20036;-74
2022/04/07 07:05:58;;;;;;;1.67;1.58;;;8.80;99.90;;;;;;5002721;28;20033;-74
2022/04/07 07:08:23;;;;;;;2.05;1.77;;;8.80;99.90;;;;;;5032602;28;20057;-73
2022/04/07 07:10:50;;;;;;;1.92;1.52;;;8.80;99.90;;;;;;5013918;28;20041;-73
2022/04/07 07:13:20;;;;;;;2.22;2.00;;;8.90;99.90;;;;;;5033127;28;20091;-74
2022/04/07 07:15:46;;;;;;;2.40;1.63;;;9.00;99.90;;;;;;5010194;28;20106;-73
2022/04/07 07:18:11;;;;;;;2.00;1.50;;;9.10;99.90;;;;;;5030498;28;20032;-73
2022/04/07 07:20:37;;;;;;;2.55;1.50;;;9.20;99.90;;;;;;5003863;28;20475;-72
2022/04/07 07:23:03;;;;;;;1.92;1.60;;;9.30;99.90;;;;;;5036005;28;20029;-73
2022/04/07 07:25:31;;;;;;;1.55;1.30;;;9.40;99.90;;;;;;5032841;28;20041;-73
2022/04/07 07:27:57;;;;;;;1.67;1.33;;;9.40;99.90;;;;;;5030959;28;20435;-72
2022/04/07 07:30:22;;;;;;;1.73;1.20;;;9.50;99.90;;;;;;5003734;28;20084;-73
2022/04/07 07:32:48;;;;;;;2.17;1.52;;;9.40;99.90;;;;;;5030773;28;20017;-73
2022/04/07 07:35:17;;;;;;;3.33;1.85;;;9.40;99.90;;;;;;5021219;28;20375;-73
2022/04/07 07:37:52;;;;;;;4.00;2.35;;;9.50;99.90;;;;;;5016490;28;20029;-73
2022/04/07 07:40:21;;;;;;;3.45;1.92;;;9.70;99.90;;;;;;5023103;28;20041;-74
2022/04/07 07:42:47;;;;;;;1.77;1.00;;;10.00;99.90;;;;;;5039196;28;20108;-73
2022/04/07 07:45:14;;;;;;;2.10;1.23;;;10.10;99.90;;;;;;5040595;28;20025;-74
2022/04/07 07:47:39;;;;;;;1.85;1.05;;;10.30;99.90;;;;;;5019296;28;20440;-73
2022/04/07 07:50:06;;;;;;;1.20;1.00;;;10.40;99.90;;;;;;5040348;28;20049;-72
2022/04/07 07:52:32;;;;;;;1.15;1.05;;;10.50;99.90;;;;;;5014709;28;20025;-73
2022/04/07 07:54:57;;;;;;;1.45;1.10;;;10.70;99.90;;;;;;5006022;28;20104;-73
2022/04/07 07:57:23;;;;;;;2.88;1.45;;;10.60;99.90;;;;;;5019257;28;20025;-73
2022/04/07 07:59:50;;;;;;;1.88;1.00;;;10.50;99.90;;;;;;5021288;28;20129;-73
2022/04/07 08:02:17;;;;;;;1.60;1.20;;;10.40;99.90;;;;;;5012537;28;20030;-73
2022/04/07 08:04:42;;;;;;;1.35;1.20;;;10.20;99.90;;;;;;5031085;28;20036;-74
2022/04/07 08:07:08;;;;;;;1.10;1.00;;;10.20;99.90;;;;;;5041321;28;20038;-73
2022/04/07 08:09:34;;;;;;;1.20;1.00;;;10.10;99.90;;;;;;5042084;28;20029;-73
2022/04/07 08:11:59;;;;;;;1.20;1.10;;;10.10;99.90;;;;;;5031872;28;20025;-73
2022/04/07 08:14:25;;;;;;;1.55;1.10;;;10.10;99.90;;;;;;5004583;28;20026;-73
2022/04/07 08:16:50;;;;;;;1.77;1.00;;;10.20;99.90;;;;;;5025743;28;20484;-73
2022/04/07 08:19:16;;;;;;;1.63;1.10;;;10.20;99.90;;;;;;5022266;28;20420;-73
2022/04/07 08:21:41;;;;;;;3.65;2.28;;;10.20;99.90;;;;;;5018605;28;20030;-74
2022/04/07 08:24:07;;;;;;;2.92;1.40;;;10.20;99.90;;;;;;5034895;28;20041;-74
2022/04/07 08:26:33;;;;;;;1.33;1.10;;;10.20;99.90;;;;;;5019334;28;20049;-73
2022/04/07 08:28:59;;;;;;;1.30;0.93;;;10.10;99.90;;;;;;5012367;28;20487;-73
2022/04/07 08:31:25;;;;;;;1.65;1.00;;;10.20;99.90;;;;;;5011957;28;20076;-73
2022/04/07 08:33:51;;;;;;;0.98;0.85;;;10.20;99.90;;;;;;5003792;28;20075;-73
2022/04/07 08:36:16;;;;;;;2.65;0.82;;;10.10;99.90;;;;;;5034813;28;20021;-73
2022/04/07 08:38:42;;;;;;;1.73;1.00;;;10.10;99.90;;;;;;5022854;28;20475;-73
2022/04/07 08:41:09;;;;;;;1.25;1.00;;;10.00;99.90;;;;;;5025228;28;20033;-73
2022/04/07 08:43:38;;;;;;;2.47;0.77;;;9.90;99.90;;;;;;4994418;28;20058;-74
2022/04/07 08:46:07;;;;;;;1.38;0.80;;;9.80;99.90;;;;;;5010022;28;20407;-73
2022/04/07 08:48:40;;;;;;;1.02;0.90;;;9.70;99.90;;;;;;5021780;28;20488;-73
2022/04/07 08:51:06;;;;;;;1.17;0.90;;;9.60;99.90;;;;;;4998028;28;20052;-73
2022/04/07 08:53:33;;;;;;;0.80;0.80;;;9.50;99.90;;;;;;5039722;28;20029;-73
2022/04/07 08:56:01;;;;;;;0.93;0.82;;;9.50;99.90;;;;;;5037375;28;20037;-74
2022/04/07 08:58:26;;;;;;;1.77;1.20;;;9.60;99.90;;;;;;5031602;28;20109;-73
2022/04/07 09:00:52;;;;;;;2.25;1.15;;;9.60;99.90;;;;;;5027126;28;20113;-73
2022/04/07 09:03:18;;;;;;;2.10;1.17;;;9.60;99.90;;;;;;5025378;28;20179;-73
2022/04/07 09:05:58;;;;;;;1.58;1.00;;;9.60;99.90;;;;;;5014895;28;20025;-73
2022/04/07 09:08:36;;;;;;;1.85;0.98;;;9.70;99.90;;;;;;5017456;28;20388;-73
2022/04/07 09:11:05;;;;;;;1.58;1.00;;;9.70;99.90;;;;;;5024803;28;20522;-73
2022/04/07 09:13:35;;;;;;;1.90;1.00;;;9.70;99.90;;;;;;5032244;28;20030;-73
2022/04/07 09:16:07;;;;;;;1.27;0.90;;;9.80;99.90;;;;;;5012940;28;20373;-73
2022/04/07 09:18:36;;;;;;;2.13;0.77;;;9.90;99.90;;;;;;5031282;28;20021;-73
2022/04/07 09:21:04;;;;;;;1.33;0.80;;;9.90;99.90;;;;;;5009840;28;20053;-73
2022/04/07 09:23:37;;;;;;;1.08;0.80;;;9.90;99.90;;;;;;5030875;28;20386;-73
2022/04/07 09:26:03;;;;;;;2.15;1.20;;;9.90;99.90;;;;;;5030975;28;20112;-73
2022/04/07 09:28:30;;;;;;;1.77;0.80;;;9.90;99.90;;;;;;5025172;28;20025;-73
2022/04/07 09:30:57;;;;;;;1.02;0.90;;;10.00;99.90;;;;;;5030809;28;20018;-73
2022/04/07 09:33:24;;;;;;;1.17;0.80;;;10.00;99.90;;;;;;5017862;28;20017;-73
2022/04/07 09:36:12;;;;;;;2.55;1.40;;;10.00;99.90;;;;;;5000695;28;20026;-73
2022/04/07 09:38:38;;;;;;;2.15;1.33;;;10.00;99.90;;;;;;5019124;28;20394;-73
2022/04/07 09:41:12;;;;;;;1.25;0.70;;;10.00;99.90;;;;;;5031798;28;20038;-73
2022/04/07 09:43:48;;;;;;;0.85;0.60;;;10.00;99.90;;;;;;5037708;28;20474;-73
2022/04/07 09:46:18;;;;;;;2.40;1.20;;;10.10;99.90;;;;;;5022351;28;20025;-73
2022/04/07 09:48:58;;;;;;;0.65;0.60;;;10.10;99.90;;;;;;5025254;28;20057;-73
2022/04/07 09:51:24;;;;;;;1.10;0.75;;;10.10;99.90;;;;;;5027853;28;20018;-73
2022/04/07 09:53:54;;;;;;;1.58;1.00;;;10.10;99.90;;;;;;5032510;28;20088;-73
2022/04/07 09:56:20;;;;;;;3.35;1.00;;;10.20;99.90;;;;;;5011352;28;20045;-73
2022/04/07 09:58:47;;;;;;;3.35;0.88;;;10.10;99.90;;;;;;5025817;28;20029;-73
2022/04/07 10:01:13;;;;;;;1.65;0.95;;;10.10;99.90;;;;;;5034381;28;20109;-73
2022/04/07 10:03:39;;;;;;;0.60;0.60;;;10.00;99.90;;;;;;5039336;28;20096;-73
2022/04/07 10:06:06;;;;;;;1.58;0.65;;;10.00;99.90;;;;;;5034526;28;20034;-74
2022/04/07 10:08:32;;;;;;;1.30;0.65;;;10.00;99.90;;;;;;5029301;28;20777;-73
2022/04/07 10:10:59;;;;;;;0.77;0.50;;;9.90;99.90;;;;;;5044871;28;20026;-73
2022/04/07 10:13:26;;;;;;;0.73;0.70;;;9.90;99.90;;;;;;5037997;28;20022;-73
2022/04/07 10:15:52;;;;;;;0.70;0.70;;;9.90;99.90;;;;;;5012811;28;20095;-73
2022/04/07 10:18:28;;;;;;;0.75;0.50;;;10.00;99.90;;;;;;5018500;28;20049;-73
2022/04/07 10:20:57;;;;;;;;;;;10.10;99.90;;;;;;5028205;28;20097;-74
2022/04/07 10:23:56;;;;;;;1.58;0.60;;;10.20;99.90;;;;;;5028620;28;19905;-72
2022/04/07 10:26:25;;;;;;;0.80;0.60;;;10.20;99.90;;;;;;5027736;28;20029;-73
2022/04/07 10:28:56;;;;;;;0.73;0.57;;;10.20;99.90;;;;;;5034134;28;20033;-73
2022/04/07 10:31:22;;;;;;;2.13;0.70;;;10.20;99.90;;;;;;5053818;23;20514;-74
2022/04/07 10:33:49;;;;;;;3.03;0.70;;;10.20;99.90;;;;;;5034660;28;20017;-74
2022/04/07 10:36:22;;;;;;;2.13;1.40;;;10.20;99.90;;;;;;5034982;28;20028;-73
2022/04/07 10:38:51;;;;;;;2.00;0.60;;;10.30;99.90;;;;;;5025812;28;20029;-73
2022/04/07 10:41:38;;;;;;;0.75;0.70;;;10.30;99.90;;;;;;5027710;28;20389;-73
2022/04/07 10:44:23;;;;;;;1.15;0.80;;;10.40;99.90;;;;;;5066710;28;20024;-73
2022/04/07 10:46:48;;;;;;;0.52;0.50;;;10.40;99.90;;;;;;5064263;28;20380;-73
2022/04/07 10:49:24;;;;;;;1.70;1.38;;;10.50;99.90;;;;;;5048954;28;20104;-73
2022/04/07 10:51:54;;;;;;;2.28;0.82;;;10.60;99.90;;;;;;5053051;28;20544;-73
2022/04/07 10:54:21;;;;;;;1.80;0.65;;;10.60;99.90;;;;;;5045377;28;20548;-73
2022/04/07 10:56:51;;;;;;;1.98;0.60;;;10.60;99.90;;;;;;5049558;28;20021;-73
2022/04/07 10:59:17;;;;;;;1.45;0.60;;;10.80;99.90;;;;;;5052406;28;20017;-73
2022/04/07 11:01:42;;;;;;;0.50;0.50;;;10.80;99.90;;;;;;5041133;28;20082;-74
2022/04/07 11:04:23;;;;;;;2.08;1.00;;;10.90;99.90;;;;;;5043963;28;20044;-75
2022/04/07 11:07:16;;;;;;;0.70;0.50;;;10.90;99.90;;;;;;5028031;28;20017;-74
2022/04/07 11:09:47;;;;;;;2.50;1.30;;;11.10;99.90;;;;;;5048254;28;20018;-73
2022/04/07 11:12:17;;;;;;;1.52;1.15;;;11.10;99.90;;;;;;5043203;28;20021;-74
2022/04/07 11:14:47;;;;;;;2.15;0.82;;;11.10;99.90;;;;;;5035020;28;20438;-73
2022/04/07 11:17:32;;;;;;;1.90;0.70;;;11.10;99.90;;;;;;5047886;28;20096;-73
2022/04/07 11:20:18;;;;;;;1.33;0.60;;;11.30;99.90;;;;;;5027233;28;20021;-74
2022/04/07 11:23:05;;;;;;;1.83;1.10;;;11.30;99.90;;;;;;5029414;28;20386;-73
2022/04/07 11:25:33;;;;;;;1.98;1.00;;;11.40;99.90;;;;;;5046340;28;20033;-73
2022/04/07 11:28:12;;;;;;;1.60;1.38;;;11.40;99.90;;;;;;5055185;28;20012;-73
2022/04/07 11:30:52;;;;;;;0.50;0.50;;;11.40;99.90;;;;;;5054248;28;20031;-73
2022/04/07 11:33:26;;;;;;;1.80;0.50;;;11.50;99.90;;;;;;5032545;28;20017;-73
2022/04/07 11:36:00;;;;;;;1.10;0.70;;;11.60;99.90;;;;;;5056421;28;20012;-73
2022/04/07 11:38:37;;;;;;;1.20;0.80;;;11.50;99.90;;;;;;5054678;28;20021;-73
2022/04/07 11:41:11;;;;;;;2.03;0.60;;;11.50;99.90;;;;;;5048753;28;20024;-73
2022/04/07 11:43:40;;;;;;;1.98;0.60;;;11.50;99.90;;;;;;5029876;28;20029;-73
2022/04/07 11:46:09;;;;;;;2.72;0.60;;;11.40;99.90;;;;;;5039151;28;20059;-73
2022/04/07 11:48:36;;;;;;;0.47;0.40;;;11.30;99.90;;;;;;5057939;28;20032;-73
2022/04/07 11:51:14;;;;;;;2.25;0.57;;;11.30;99.90;;;;;;5035487;28;20485;-73
2022/04/07 11:53:40;;;;;;;0.60;0.60;;;11.20;99.90;;;;;;5058541;28;20017;-73
2022/04/07 11:56:17;;;;;;;1.63;0.50;;;11.20;99.90;;;;;;5050733;28;20025;-73
2022/04/07 11:58:48;;;;;;;1.05;0.60;;;11.30;99.90;;;;;;5037315;28;20104;-73
2022/04/07 12:01:14;;;;;;;2.28;0.68;;;11.30;99.90;;;;;;5025400;28;20431;-73
2022/04/07 12:03:39;;;;;;;1.05;0.50;;;11.50;99.90;;;;;;5038331;28;20109;-72
2022/04/07 12:06:05;;;;;;;1.52;0.70;;;11.60;99.90;;;;;;5035789;28;20044;-73
2022/04/07 12:08:31;;;;;;;1.00;0.60;;;11.70;99.90;;;;;;5032035;28;20024;-73
2022/04/07 12:10:56;;;;;;;1.30;0.63;;;11.70;99.90;;;;;;5045439;28;20042;-73
2022/04/07 12:13:22;;;;;;;0.55;0.50;;;11.70;99.90;;;;;;5051759;28;20496;-73
2022/04/07 12:15:48;;;;;;;0.93;0.80;;;11.70;99.90;;;;;;5033890;28;20025;-73
2022/04/07 12:18:23;;;;;;;1.58;0.98;;;11.90;99.90;;;;;;5028540;28;20204;-73
2022/04/07 12:20:58;;;;;;;1.15;0.70;;;12.00;99.90;;;;;;5046782;28;20021;-73
2022/04/07 12:23:26;;;;;;;1.88;0.50;;;12.10;99.90;;;;;;5052734;28;20021;-73
2022/04/07 12:26:01;;;;;;;1.17;0.50;;;12.40;99.90;;;;;;5057758;28;20033;-73
2022/04/07 12:28:40;;;;;;;0.82;0.65;;;12.70;99.90;;;;;;5020796;28;20028;-74
2022/04/07 12:31:20;;;;;;;0.60;0.60;;;12.80;99.90;;;;;;5037653;28;20083;-74
2022/04/07 12:33:47;;;;;;;0.70;0.50;;;12.60;99.90;;;;;;5031881;28;20045;-74
2022/04/07 12:36:35;;;;;;;0.50;0.50;;;12.60;99.90;;;;;;5013969;28;20104;-74
2022/04/07 12:39:03;;;;;;;2.20;0.80;;;12.60;99.90;;;;;;5043719;28;20109;-73
2022/04/07 12:41:49;;;;;;;1.42;0.55;;;12.60;99.90;;;;;;5032099;28;20075;-74
2022/04/07 12:44:33;;;;;;;1.73;0.88;;;12.50;99.90;;;;;;5028929;28;20059;-73
2022/04/07 12:47:04;;;;;;;1.27;0.60;;;12.40;99.90;;;;;;5051616;28;20057;-74
2022/04/07 12:49:37;;;;;;;1.10;0.85;;;12.40;99.90;;;;;;5038237;28;20045;-73
2022/04/07 12:52:03;;;;;;;1.52;0.80;;;12.40;99.90;;;;;;5051595;28;20532;-74
2022/04/07 12:54:29;;;;;;;0.73;0.50;;;12.60;99.90;;;;;;5032571;28;20027;-73
2022/04/07 12:57:14;;;;;;;1.25;0.45;;;12.60;99.90;;;;;;5044454;28;20029;-73